If you wish to contribute or participate in the discussions about articles you are invited to join SKYbrary as a registered user

 Actions

Aberdeen Dyce Airport

From SKYbrary Wiki

EGPD /
Revision as of 15:51, 22 March 2010 by Editor1 (talk | contribs)
Airport
ICAO: EGPD
Summary
Name Aberdeen Dyce Airport
Region Europe
Territory United Kingdom GB.gif
Location Aberdeen, Scotland, United Kingdom
Serving
Coordinates 57° 12' 12.00" N, 2° 12' 27.00" W
Runways
Designator Length Width Surface ROPS
5/23 577 m1,893.045 ft <br /> 46 m150.919 ft <br /> CON yes/yes
14/32 660 m2,165.354 ft <br /> 23 m75.459 ft <br /> ASP yes/yes
16/34 1829 m6,000.656 ft <br /> 46 m150.919 ft <br /> ASP yes/yes
18/36 260 m853.018 ft <br /> 23 m75.459 ft <br /> ASP no/no


METAR
Observation EGPD 170820Z 17010KT 9999 BKN022 15/13 Q1009 NOSIG
Station Aberdeen / Dyce
Date/Time 17 September 2021 08:20:00
Wind direction 170°
Wind speed 10 kts
Lowest cloud amount broken clouds
Temperature 15°C
Dew point 13°C
Humidity 87%
QNH 1009 hPa
Weather condition n/a


Aberdeen Dyce Airport

ICAO: EGPD IATA: ABZ

Description

International airport serving...

Climatology

Maps

Terrain

Loading map...

Airport Layout

Loading map...

Accidents & Serious Incidents at or in vicinity of EGPD